Robinson, South Carolina
Current Conditions -  °F | °C
As of 9:15 AM on Saturday 22 Nov 2014 (Local Time) from KUDG Reporting Station
Clear Clear  
Wind Chill: 35°   Ceiling: Unl
Heat Index: 39°   Visibility: 10mi
Dew Point: 18°   Wind: 6mph
Humidity: 42%   Direction: 50°NE
Pressure: 30.58"   Gusts: NA
Location:  34.5053°N, 80.249°W
Report Text: KUDG 221415Z AUTO 05005KT 10SM CLR 04/M08 A3058 RMK AO1
Loading
Personal Weather Stations






























Interactive Weather Map New forecast layout! Learn more

10-Day Weather Forecast

Advertisements
Track Severe Weather on mobile